Time;durP1;ratioP1;P1;durP2;ratioP2;P2;SDS_P1;SDS_P2;PMS_P1;PMS_P2;Temp;Humidity;BMP_temperature;BMP_pressure;BME280_temperature;BME280_humidity;BME280_pressure;Samples;Min_cycle;Max_cycle;Signal;HPM_P1;HPM_P2
2023/07/09 00:01:43;;;;;;;3.88;3.00;;;23.50;92.10;;;;;;5129189;27;20197;-79
2023/07/09 00:04:11;;;;;;;3.30;3.10;;;23.50;92.20;;;;;;5129607;27;20296;-77
2023/07/09 00:06:39;;;;;;;3.13;2.85;;;23.40;92.70;;;;;;5129100;27;20244;-80
2023/07/09 00:09:07;;;;;;;3.58;3.28;;;23.40;92.30;;;;;;5129172;27;20209;-78
2023/07/09 00:11:34;;;;;;;4.20;3.13;;;23.40;92.30;;;;;;5129049;27;20236;-77
2023/07/09 00:14:01;;;;;;;5.20;3.47;;;23.30;92.50;;;;;;5129416;27;20307;-78
2023/07/09 00:16:28;;;;;;;2.85;2.67;;;23.30;92.60;;;;;;5129379;27;20237;-77
2023/07/09 00:18:56;;;;;;;3.10;2.90;;;23.30;92.70;;;;;;5137455;27;20211;-77
2023/07/09 00:21:23;;;;;;;3.70;3.05;;;23.20;92.80;;;;;;5150201;27;20215;-77
2023/07/09 00:23:50;;;;;;;3.58;3.25;;;23.20;92.80;;;;;;5149905;27;20236;-77
2023/07/09 00:26:22;;;;;;;4.05;2.85;;;23.20;92.90;;;;;;5150542;27;20287;-79
2023/07/09 00:28:49;;;;;;;3.72;2.80;;;23.20;92.90;;;;;;5150383;27;20208;-79
2023/07/09 00:31:17;;;;;;;3.20;2.78;;;23.20;93.00;;;;;;5131123;27;20321;-79
2023/07/09 00:33:45;;;;;;;5.40;3.63;;;23.20;93.10;;;;;;5129378;27;20205;-79
2023/07/09 00:36:16;;;;;;;3.65;3.15;;;23.20;93.10;;;;;;5128734;27;20209;-79
2023/07/09 00:38:47;;;;;;;3.33;3.03;;;23.10;93.30;;;;;;5128855;27;20251;-79
2023/07/09 00:41:18;;;;;;;3.40;3.10;;;23.10;93.50;;;;;;5128937;27;20663;-78
2023/07/09 00:43:47;;;;;;;6.60;3.13;;;23.10;93.30;;;;;;5128812;27;20285;-80
2023/07/09 00:46:38;;;;;;;3.45;3.15;;;23.10;93.20;;;;;;5129005;27;20910;-77
2023/07/09 00:49:08;;;;;;;4.13;3.20;;;23.00;93.30;;;;;;5128188;27;20316;-77
2023/07/09 00:51:41;;;;;;;4.53;3.30;;;23.00;93.20;;;;;;5128185;27;20695;-78
2023/07/09 00:54:14;;;;;;;3.70;3.03;;;23.00;93.40;;;;;;5127387;27;20252;-76
2023/07/09 00:56:45;;;;;;;3.60;2.95;;;23.00;93.40;;;;;;5128229;27;20241;-79
2023/07/09 00:59:18;;;;;;;3.70;3.15;;;22.90;93.80;;;;;;5129073;27;20198;-79
2023/07/09 01:01:47;;;;;;;3.65;3.35;;;22.90;93.50;;;;;;5128895;27;20190;-79
2023/07/09 01:04:16;;;;;;;5.38;3.75;;;22.80;93.60;;;;;;5128685;27;20204;-79
2023/07/09 01:06:48;;;;;;;5.35;4.88;;;22.80;93.80;;;;;;5128524;27;20320;-79
2023/07/09 01:09:16;;;;;;;5.80;4.57;;;22.60;94.00;;;;;;5128413;27;20238;-78
2023/07/09 01:11:43;;;;;;;5.30;4.43;;;22.70;94.00;;;;;;5127751;27;20584;-78
2023/07/09 01:14:12;;;;;;;4.93;3.63;;;22.70;94.10;;;;;;5127748;27;20742;-78
2023/07/09 01:16:56;;;;;;;4.00;3.70;;;22.70;94.00;;;;;;5128326;27;20232;-78
2023/07/09 01:19:25;;;;;;;3.65;3.35;;;22.70;94.00;;;;;;5115840;27;20213;-77
2023/07/09 01:21:54;;;;;;;3.63;3.33;;;22.70;94.20;;;;;;5107312;28;20234;-78
2023/07/09 01:24:50;;;;;;;18.65;3.40;;;22.70;94.30;;;;;;5107807;28;20256;-78
2023/07/09 01:27:19;;;;;;;3.60;3.30;;;22.70;94.20;;;;;;5123866;27;20205;-78
2023/07/09 01:29:48;;;;;;;4.00;3.25;;;22.70;94.50;;;;;;5121958;27;20640;-76
2023/07/09 01:32:18;;;;;;;3.22;2.97;;;22.70;94.40;;;;;;5106865;28;20945;-77
2023/07/09 01:34:47;;;;;;;4.22;2.83;;;22.70;94.50;;;;;;5106547;28;20216;-76
2023/07/09 01:37:18;;;;;;;3.63;3.30;;;22.70;94.60;;;;;;5107039;28;20214;-77
2023/07/09 01:39:45;;;;;;;3.60;3.03;;;22.60;94.60;;;;;;5106881;28;20191;-76
2023/07/09 01:42:12;;;;;;;4.28;3.10;;;22.60;94.60;;;;;;5106985;28;20201;-77
2023/07/09 01:44:40;;;;;;;3.78;3.15;;;22.50;94.50;;;;;;5106544;28;20210;-76
2023/07/09 01:47:07;;;;;;;5.20;3.40;;;22.50;94.90;;;;;;5106485;28;20210;-76
2023/07/09 01:49:34;;;;;;;4.40;3.50;;;22.50;94.80;;;;;;5120486;27;20200;-77
2023/07/09 01:52:02;;;;;;;8.35;3.50;;;22.40;94.70;;;;;;5126910;27;20229;-76
2023/07/09 01:54:33;;;;;;;5.53;3.17;;;22.40;95.10;;;;;;5126817;27;20918;-80
2023/07/09 01:57:15;;;;;;;5.10;3.20;;;22.40;95.00;;;;;;5126710;27;20239;-77
2023/07/09 01:59:44;;;;;;;4.45;2.85;;;22.40;95.10;;;;;;5126615;27;20193;-77
2023/07/09 02:02:18;;;;;;;3.13;2.92;;;22.40;95.20;;;;;;5127124;27;20556;-77
2023/07/09 02:04:47;;;;;;;4.35;2.88;;;22.40;95.30;;;;;;5126946;27;20548;-77
2023/07/09 02:07:14;;;;;;;3.63;3.17;;;22.30;95.40;;;;;;5121494;27;20293;-77
2023/07/09 02:09:42;;;;;;;5.72;3.00;;;22.30;95.40;;;;;;5106500;28;20202;-77
2023/07/09 02:12:10;;;;;;;4.20;3.08;;;22.30;95.40;;;;;;5106234;28;20230;-77
2023/07/09 02:14:38;;;;;;;4.05;3.10;;;22.30;95.40;;;;;;5106190;28;20668;-77
2023/07/09 02:17:05;;;;;;;3.63;3.10;;;22.30;95.60;;;;;;5106678;28;20206;-77
2023/07/09 02:19:32;;;;;;;3.20;2.90;;;22.20;95.70;;;;;;5118747;27;20999;-77
2023/07/09 02:21:59;;;;;;;3.30;3.05;;;22.20;95.60;;;;;;5126721;27;20320;-78
2023/07/09 02:24:27;;;;;;;7.30;3.17;;;22.20;95.60;;;;;;5126225;27;20667;-76
2023/07/09 02:26:55;;;;;;;4.38;3.38;;;22.00;95.40;;;;;;5126665;27;20246;-75
2023/07/09 02:29:22;;;;;;;3.13;2.90;;;22.10;95.70;;;;;;5126247;27;20717;-76
2023/07/09 02:31:50;;;;;;;5.45;3.20;;;22.10;95.80;;;;;;5126152;27;20225;-78
2023/07/09 02:34:17;;;;;;;5.15;3.40;;;22.20;96.00;;;;;;5126663;27;20300;-76
2023/07/09 02:36:44;;;;;;;3.45;3.15;;;22.20;96.00;;;;;;5126337;27;20201;-76
2023/07/09 02:39:12;;;;;;;3.45;3.10;;;22.20;96.40;;;;;;5126454;27;20687;-77
2023/07/09 02:41:39;;;;;;;3.88;3.47;;;22.20;96.30;;;;;;5126704;27;20232;-76
2023/07/09 02:44:08;;;;;;;3.92;3.25;;;22.20;96.50;;;;;;5126643;28;20224;-76
2023/07/09 02:46:35;;;;;;;3.60;3.28;;;22.20;96.60;;;;;;5126750;28;20390;-79
2023/07/09 02:49:05;;;;;;;3.30;3.00;;;22.10;96.50;;;;;;5126501;28;20209;-78
2023/07/09 02:51:32;;;;;;;4.35;3.03;;;22.10;96.50;;;;;;5126351;28;20276;-78
2023/07/09 02:54:01;;;;;;;4.25;3.20;;;22.10;96.60;;;;;;5126375;28;20224;-78
2023/07/09 02:56:29;;;;;;;7.68;3.38;;;22.10;96.80;;;;;;5126488;28;20237;-78
2023/07/09 02:58:56;;;;;;;4.15;3.45;;;22.10;97.10;;;;;;5126440;28;20209;-78
2023/07/09 03:01:27;;;;;;;3.38;2.92;;;22.00;97.10;;;;;;5126265;28;20556;-79
2023/07/09 03:03:54;;;;;;;5.05;3.30;;;22.00;97.30;;;;;;5117379;27;20652;-79
2023/07/09 03:06:21;;;;;;;3.28;2.97;;;22.00;97.70;;;;;;5105946;28;20206;-79
2023/07/09 03:08:48;;;;;;;4.18;3.22;;;21.80;97.40;;;;;;5105387;28;20660;-79
2023/07/09 03:11:16;;;;;;;3.22;2.92;;;21.80;97.10;;;;;;5105835;28;20229;-79
2023/07/09 03:13:43;;;;;;;3.20;2.90;;;21.80;97.10;;;;;;5106008;28;20230;-79
2023/07/09 03:16:10;;;;;;;4.97;3.20;;;21.90;97.10;;;;;;5106135;28;20304;-79
2023/07/09 03:18:40;;;;;;;4.15;3.67;;;21.90;97.30;;;;;;5115762;27;20672;-79
2023/07/09 03:21:07;;;;;;;3.95;3.08;;;21.80;97.40;;;;;;5130442;27;20216;-77
2023/07/09 03:23:34;;;;;;;3.42;2.92;;;21.80;97.60;;;;;;5129535;27;20241;-77
2023/07/09 03:26:01;;;;;;;3.80;3.50;;;21.80;97.80;;;;;;5130426;27;20292;-77
2023/07/09 03:28:28;;;;;;;3.60;3.30;;;21.80;98.00;;;;;;5129962;27;20288;-77
2023/07/09 03:30:56;;;;;;;4.10;3.60;;;21.80;98.20;;;;;;5129664;27;20197;-77
2023/07/09 03:33:24;;;;;;;4.93;3.72;;;21.80;98.30;;;;;;5130008;27;20235;-77
2023/07/09 03:35:52;;;;;;;5.13;3.30;;;21.80;98.50;;;;;;5129662;27;20290;-77
2023/07/09 03:38:20;;;;;;;10.15;3.97;;;21.70;98.80;;;;;;5129986;27;20205;-77
2023/07/09 03:40:50;;;;;;;3.92;3.10;;;21.70;99.00;;;;;;5129956;27;20291;-78
2023/07/09 03:43:17;;;;;;;8.77;3.78;;;21.70;99.30;;;;;;5130035;27;20528;-78
2023/07/09 03:45:46;;;;;;;5.20;3.60;;;21.70;99.70;;;;;;5129730;27;20626;-77
2023/07/09 03:48:13;;;;;;;4.32;3.95;;;21.70;99.50;;;;;;5127493;27;20210;-79
2023/07/09 03:50:40;;;;;;;5.47;3.80;;;21.70;99.40;;;;;;5109118;28;20220;-77
2023/07/09 03:53:08;;;;;;;5.30;4.18;;;21.60;99.40;;;;;;5108790;28;20981;-77
2023/07/09 03:55:35;;;;;;;4.65;4.15;;;21.60;99.50;;;;;;5108967;28;20202;-77
2023/07/09 03:58:03;;;;;;;3.88;3.58;;;21.60;99.50;;;;;;5108859;28;20201;-77
2023/07/09 04:00:30;;;;;;;4.05;3.75;;;21.50;99.70;;;;;;5120638;27;20209;-80
2023/07/09 04:02:57;;;;;;;4.38;4.07;;;21.60;99.30;;;;;;5129350;27;20205;-76
2023/07/09 04:05:25;;;;;;;4.43;4.03;;;21.50;99.20;;;;;;5129061;27;20686;-76
2023/07/09 04:07:52;;;;;;;5.13;4.07;;;21.50;99.30;;;;;;5129339;27;20265;-77
2023/07/09 04:10:21;;;;;;;5.18;4.40;;;21.50;99.50;;;;;;5129550;27;20227;-76
2023/07/09 04:12:48;;;;;;;8.40;4.55;;;21.50;99.60;;;;;;5129119;27;20672;-76
2023/07/09 04:15:15;;;;;;;4.28;3.90;;;21.50;99.70;;;;;;5128806;27;20303;-76
2023/07/09 04:17:42;;;;;;;5.50;4.07;;;21.50;99.80;;;;;;5128869;27;20205;-76
2023/07/09 04:20:10;;;;;;;4.60;4.20;;;21.50;99.90;;;;;;5110005;27;20206;-76
2023/07/09 04:22:37;;;;;;;6.38;4.03;;;21.50;99.90;;;;;;5116520;27;20208;-79
2023/07/09 04:25:06;;;;;;;5.22;4.25;;;21.50;99.90;;;;;;5129267;27;20212;-78
2023/07/09 04:27:34;;;;;;;5.53;4.30;;;21.50;99.90;;;;;;5129069;27;20217;-79
2023/07/09 04:30:02;;;;;;;5.45;3.95;;;21.50;99.90;;;;;;5121413;27;20298;-78
2023/07/09 04:32:29;;;;;;;5.43;4.25;;;21.50;99.70;;;;;;5108332;28;20825;-78
2023/07/09 04:34:56;;;;;;;3.88;3.55;;;21.50;99.50;;;;;;5108037;28;20210;-78
2023/07/09 04:37:23;;;;;;;4.85;3.60;;;21.50;99.70;;;;;;5108215;28;20205;-78
2023/07/09 04:39:50;;;;;;;4.63;4.15;;;21.50;99.70;;;;;;5108056;28;20945;-78
2023/07/09 04:42:18;;;;;;;4.50;4.10;;;21.50;99.70;;;;;;5107896;28;20302;-78
2023/07/09 04:44:47;;;;;;;3.90;3.60;;;21.50;99.70;;;;;;5107997;28;20206;-78
2023/07/09 04:47:14;;;;;;;4.32;3.67;;;21.50;99.60;;;;;;5107736;28;20575;-78
2023/07/09 04:49:41;;;;;;;4.10;3.80;;;21.50;99.70;;;;;;5122343;27;20214;-79
2023/07/09 04:52:11;;;;;;;5.13;3.50;;;21.60;99.60;;;;;;5128341;27;20202;-78
2023/07/09 04:54:40;;;;;;;4.30;3.88;;;21.50;99.50;;;;;;5128845;27;20217;-79
2023/07/09 04:57:07;;;;;;;4.10;3.58;;;21.60;99.60;;;;;;5128225;27;20683;-79
2023/07/09 04:59:34;;;;;;;3.85;3.50;;;21.60;99.60;;;;;;5128648;27;20201;-78
2023/07/09 05:02:03;;;;;;;3.85;3.10;;;21.60;99.40;;;;;;5128916;27;20296;-80
2023/07/09 05:04:30;;;;;;;6.20;3.53;;;21.60;99.60;;;;;;5128408;27;20210;-79
2023/07/09 05:06:58;;;;;;;5.18;3.55;;;21.70;99.60;;;;;;5128469;27;20213;-79
2023/07/09 05:09:25;;;;;;;3.78;3.55;;;21.70;99.60;;;;;;5128474;27;20759;-79
2023/07/09 05:11:52;;;;;;;3.80;3.50;;;21.70;99.60;;;;;;5128964;27;20367;-80
2023/07/09 05:14:19;;;;;;;3.80;3.50;;;21.80;99.90;;;;;;5128648;27;20616;-79
2023/07/09 05:16:46;;;;;;;5.07;3.75;;;21.80;99.80;;;;;;5128730;27;20205;-79
2023/07/09 05:19:14;;;;;;;7.00;3.33;;;21.80;99.70;;;;;;5117760;27;20214;-80
2023/07/09 05:21:41;;;;;;;4.10;3.70;;;21.90;99.60;;;;;;5108481;27;20294;-79
2023/07/09 05:24:08;;;;;;;3.63;3.33;;;21.90;99.70;;;;;;5128464;27;20291;-78
2023/07/09 05:26:35;;;;;;;3.78;3.47;;;21.90;99.60;;;;;;5127597;27;20209;-77
2023/07/09 05:29:05;;;;;;;3.35;2.97;;;22.00;99.40;;;;;;5127623;27;20205;-77
2023/07/09 05:31:32;;;;;;;4.35;3.50;;;22.00;99.30;;;;;;5106977;28;20212;-79
2023/07/09 05:34:00;;;;;;;6.45;3.80;;;22.00;99.20;;;;;;5107955;28;20229;-79
2023/07/09 05:36:29;;;;;;;4.63;3.25;;;22.10;99.40;;;;;;5107393;28;20202;-79
2023/07/09 05:38:56;;;;;;;3.75;3.30;;;22.10;99.30;;;;;;5107585;28;20210;-79
2023/07/09 05:41:23;;;;;;;5.03;3.90;;;22.10;99.20;;;;;;5106827;28;20292;-79
2023/07/09 05:43:52;;;;;;;6.60;3.92;;;22.20;99.30;;;;;;5107350;28;20202;-79
2023/07/09 05:46:19;;;;;;;6.18;4.00;;;22.20;99.50;;;;;;5107168;28;20675;-80
2023/07/09 05:48:46;;;;;;;3.60;3.30;;;22.20;99.40;;;;;;5121262;27;20246;-80
2023/07/09 05:51:13;;;;;;;4.90;3.55;;;22.30;99.50;;;;;;5148358;27;20261;-80
2023/07/09 05:53:41;;;;;;;5.25;3.45;;;22.30;99.50;;;;;;5113173;27;20327;-79
2023/07/09 05:56:08;;;;;;;3.78;3.55;;;22.30;99.60;;;;;;5107086;28;20333;-78
2023/07/09 05:58:36;;;;;;;3.60;3.30;;;22.20;99.60;;;;;;5106731;28;20644;-79
2023/07/09 06:01:02;;;;;;;3.67;3.38;;;22.30;99.70;;;;;;5106801;28;20202;-77
2023/07/09 06:03:30;;;;;;;4.40;3.38;;;22.30;99.80;;;;;;5106455;28;20675;-79
2023/07/09 06:05:58;;;;;;;3.72;3.42;;;22.40;99.80;;;;;;5106297;28;20206;-80
2023/07/09 06:08:26;;;;;;;3.53;3.22;;;22.40;99.90;;;;;;5106867;28;20202;-80
2023/07/09 06:10:56;;;;;;;5.30;3.70;;;22.50;99.90;;;;;;5106295;28;20660;-76
2023/07/09 06:13:24;;;;;;;4.13;3.45;;;22.50;99.90;;;;;;5106448;28;20733;-79
2023/07/09 06:15:52;;;;;;;6.55;3.58;;;22.60;99.90;;;;;;5107258;28;20208;-79
2023/07/09 06:18:19;;;;;;;8.70;3.50;;;22.70;99.90;;;;;;5110136;27;20304;-79
2023/07/09 06:20:51;;;;;;;6.13;3.80;;;22.70;99.90;;;;;;5127127;27;20219;-78
2023/07/09 06:23:19;;;;;;;4.20;3.90;;;22.70;99.90;;;;;;5126765;27;20663;-79
2023/07/09 06:25:48;;;;;;;4.32;3.72;;;22.80;99.90;;;;;;5126974;27;20753;-77
2023/07/09 06:28:17;;;;;;;3.50;3.30;;;22.80;99.90;;;;;;5126508;27;20217;-76
2023/07/09 06:30:45;;;;;;;4.13;3.80;;;22.90;99.70;;;;;;5126278;27;20991;-76
2023/07/09 06:33:13;;;;;;;3.85;3.63;;;22.90;99.90;;;;;;5126076;27;20217;-76
2023/07/09 06:35:46;;;;;;;4.30;3.28;;;22.90;99.40;;;;;;5111255;27;20205;-76
2023/07/09 06:38:13;;;;;;;5.03;3.67;;;22.90;99.10;;;;;;5104649;28;20737;-76
2023/07/09 06:40:40;;;;;;;4.75;3.60;;;23.10;99.90;;;;;;5105510;28;20293;-80
2023/07/09 06:43:07;;;;;;;5.68;3.53;;;23.10;99.50;;;;;;5104555;28;20656;-78
2023/07/09 06:45:35;;;;;;;3.60;3.30;;;23.20;99.40;;;;;;5104445;28;20202;-81
2023/07/09 06:48:02;;;;;;;3.63;3.30;;;23.20;99.00;;;;;;5105984;27;20245;-80
2023/07/09 06:50:29;;;;;;;4.07;3.55;;;23.30;98.60;;;;;;5124976;27;20209;-82
2023/07/09 06:52:58;;;;;;;3.47;3.10;;;23.30;98.00;;;;;;5127851;27;20205;-80
2023/07/09 06:55:25;;;;;;;3.50;3.20;;;23.40;97.70;;;;;;5129188;27;20205;-82
2023/07/09 06:57:52;;;;;;;4.32;3.40;;;23.40;97.10;;;;;;5128785;27;20233;-79
2023/07/09 07:00:19;;;;;;;3.80;3.50;;;23.40;96.90;;;;;;5128959;27;20211;-79
2023/07/09 07:02:47;;;;;;;4.68;2.90;;;23.50;96.70;;;;;;5128562;27;20292;-80
2023/07/09 07:05:14;;;;;;;3.55;3.30;;;23.60;96.70;;;;;;5128977;27;20299;-79
2023/07/09 07:07:41;;;;;;;3.45;3.15;;;23.60;96.70;;;;;;5129124;27;20663;-80
2023/07/09 07:10:09;;;;;;;3.50;3.00;;;23.60;96.70;;;;;;5128149;27;20225;-80
2023/07/09 07:12:43;;;;;;;3.13;2.92;;;23.70;96.60;;;;;;5128681;27;20205;-80
2023/07/09 07:15:13;;;;;;;3.50;3.20;;;23.70;96.30;;;;;;5119951;27;20315;-79
2023/07/09 07:17:39;;;;;;;3.85;3.55;;;23.80;96.40;;;;;;5108212;28;20202;-79
2023/07/09 07:20:10;;;;;;;4.90;3.30;;;23.80;96.20;;;;;;5126454;27;20281;-77
2023/07/09 07:22:37;;;;;;;3.50;3.20;;;23.80;96.10;;;;;;5128690;27;20282;-78
2023/07/09 07:25:04;;;;;;;3.53;3.22;;;23.80;96.20;;;;;;5128638;27;20205;-77
2023/07/09 07:27:31;;;;;;;11.55;3.50;;;23.80;96.20;;;;;;5128349;27;20328;-78
2023/07/09 07:29:58;;;;;;;5.20;3.35;;;23.90;96.20;;;;;;5128491;27;20633;-77
2023/07/09 07:32:25;;;;;;;4.03;3.08;;;23.90;96.30;;;;;;5128368;27;20294;-78
2023/07/09 07:34:54;;;;;;;3.63;3.20;;;23.90;96.20;;;;;;5128191;27;20239;-79
2023/07/09 07:37:22;;;;;;;3.45;3.15;;;24.00;96.30;;;;;;5128491;27;20208;-78
2023/07/09 07:39:49;;;;;;;3.17;2.92;;;24.00;96.40;;;;;;5128837;27;20305;-78
2023/07/09 07:42:16;;;;;;;7.50;3.20;;;24.00;96.40;;;;;;5128978;27;20256;-78
2023/07/09 07:44:43;;;;;;;3.08;2.88;;;24.00;96.20;;;;;;5123541;27;20910;-77
2023/07/09 07:47:11;;;;;;;5.03;3.38;;;24.10;96.30;;;;;;5107784;28;20213;-77
2023/07/09 07:49:39;;;;;;;3.80;3.40;;;24.10;96.60;;;;;;5107437;28;20584;-78
2023/07/09 07:52:10;;;;;;;6.25;3.80;;;24.10;96.80;;;;;;5107893;28;20213;-77
2023/07/09 07:54:38;;;;;;;3.17;2.97;;;24.20;96.80;;;;;;5107432;28;20320;-76
2023/07/09 07:57:05;;;;;;;4.63;3.38;;;24.20;96.80;;;;;;5107599;28;20345;-77
2023/07/09 07:59:34;;;;;;;3.80;3.28;;;24.30;96.80;;;;;;5108018;27;20285;-78
2023/07/09 08:02:01;;;;;;;3.90;3.45;;;24.30;96.70;;;;;;5118519;27;20208;-78
2023/07/09 08:04:28;;;;;;;3.53;3.30;;;24.30;96.70;;;;;;5123202;27;20305;-78
2023/07/09 08:06:55;;;;;;;3.70;3.30;;;24.40;96.80;;;;;;5128914;27;20205;-77
2023/07/09 08:09:22;;;;;;;4.10;3.17;;;24.40;97.00;;;;;;5129478;27;20253;-78
2023/07/09 08:11:50;;;;;;;3.90;3.35;;;24.40;96.90;;;;;;5129474;27;20202;-77
2023/07/09 08:14:17;;;;;;;5.80;3.22;;;24.40;96.70;;;;;;5129363;27;20315;-77
2023/07/09 08:16:44;;;;;;;5.32;3.70;;;24.40;96.60;;;;;;5128954;27;20205;-77
2023/07/09 08:19:11;;;;;;;3.72;3.10;;;24.50;96.50;;;;;;5129415;27;20292;-77
2023/07/09 08:21:38;;;;;;;5.75;3.55;;;24.50;96.40;;;;;;5128855;27;20320;-78
2023/07/09 08:24:06;;;;;;;3.88;3.05;;;24.50;96.50;;;;;;5129157;27;20242;-77
2023/07/09 08:26:33;;;;;;;3.30;3.08;;;24.60;96.40;;;;;;5122964;27;20735;-77
2023/07/09 08:29:01;;;;;;;4.80;3.60;;;24.60;96.60;;;;;;5116332;27;20663;-78
2023/07/09 08:31:28;;;;;;;4.32;3.33;;;24.60;96.70;;;;;;5116210;27;20313;-81
2023/07/09 08:33:54;;;;;;;4.28;3.22;;;24.60;96.80;;;;;;5106903;27;20332;-72
2023/07/09 08:36:21;;;;;;;5.15;3.60;;;24.60;96.80;;;;;;5126212;27;20656;-72
2023/07/09 08:38:48;;;;;;;3.67;3.30;;;24.70;96.80;;;;;;5126238;27;20201;-72
2023/07/09 08:41:40;;;;;;;25.48;5.32;;;24.80;97.10;;;;;;5133391;27;20222;-73
2023/07/09 08:44:27;;;;;;;10.80;3.67;;;24.80;97.00;;;;;;5146725;27;20199;-72
2023/07/09 08:47:03;;;;;;;6.22;3.80;;;24.80;97.00;;;;;;5147047;27;20639;-72
2023/07/09 08:49:38;;;;;;;3.45;3.22;;;24.90;97.00;;;;;;5133698;27;21008;-72
2023/07/09 08:52:11;;;;;;;8.13;3.88;;;24.90;97.20;;;;;;5125990;27;20648;-72
2023/07/09 08:54:38;;;;;;;16.13;4.20;;;25.00;96.40;;;;;;5108266;27;20316;-72
2023/07/09 08:57:21;;;;;;;10.70;4.60;;;25.00;95.80;;;;;;5125705;27;20272;-73
2023/07/09 08:59:54;;;;;;;4.82;3.28;;;25.10;95.60;;;;;;5125763;27;20280;-72
2023/07/09 09:02:32;;;;;;;4.05;3.75;;;25.10;96.10;;;;;;5122358;27;20197;-72
2023/07/09 09:04:59;;;;;;;3.47;3.28;;;25.20;95.50;;;;;;5126224;27;20262;-69
2023/07/09 09:07:40;;;;;;;3.63;3.35;;;25.20;95.80;;;;;;5118354;27;20561;-73
2023/07/09 09:10:12;;;;;;;4.80;3.78;;;25.20;95.50;;;;;;5105099;28;20333;-72
2023/07/09 09:12:43;;;;;;;3.53;3.22;;;25.40;96.00;;;;;;5105286;28;20194;-73
2023/07/09 09:15:17;;;;;;;3.45;3.25;;;25.40;95.90;;;;;;5108014;27;20218;-74
2023/07/09 09:17:44;;;;;;;4.72;3.33;;;25.50;95.90;;;;;;5125549;27;20198;-73
2023/07/09 09:20:17;;;;;;;5.03;3.58;;;25.50;95.20;;;;;;5106633;27;20249;-72
2023/07/09 09:22:49;;;;;;;3.85;3.55;;;25.60;95.40;;;;;;5110511;27;20682;-73
2023/07/09 09:25:24;;;;;;;6.78;3.35;;;25.70;95.30;;;;;;5120215;27;20293;-73
2023/07/09 09:27:51;;;;;;;5.68;3.50;;;25.70;95.30;;;;;;5125669;27;20703;-76
2023/07/09 09:30:22;;;;;;;4.75;3.38;;;25.80;95.40;;;;;;5107136;27;20198;-76
2023/07/09 09:32:54;;;;;;;3.90;3.50;;;25.80;94.90;;;;;;5105008;28;20186;-77
2023/07/09 09:35:26;;;;;;;3.90;3.60;;;25.80;94.70;;;;;;5125549;27;20225;-76
2023/07/09 09:37:55;;;;;;;12.07;4.10;;;25.90;95.10;;;;;;5125055;27;20262;-76
2023/07/09 09:40:23;;;;;;;8.40;3.90;;;26.00;95.30;;;;;;5125679;27;20247;-77
2023/07/09 09:42:50;;;;;;;6.03;3.72;;;26.00;94.70;;;;;;5125879;27;20819;-80
2023/07/09 09:45:21;;;;;;;5.35;3.30;;;26.10;94.50;;;;;;5126422;27;20288;-80
2023/07/09 09:47:49;;;;;;;4.15;3.40;;;26.10;94.50;;;;;;5126069;27;20209;-81
2023/07/09 09:50:16;;;;;;;4.45;3.83;;;26.10;94.30;;;;;;5111430;27;20682;-80
2023/07/09 09:52:45;;;;;;;3.92;3.45;;;26.30;93.30;;;;;;5112083;27;20321;-80
2023/07/09 09:55:19;;;;;;;6.50;3.17;;;26.40;91.70;;;;;;5117180;27;20784;-80
2023/07/09 09:57:49;;;;;;;3.90;3.53;;;26.50;91.90;;;;;;5117048;27;20232;-80
2023/07/09 10:00:17;;;;;;;3.60;3.30;;;26.50;92.00;;;;;;5104510;28;20285;-81
2023/07/09 10:02:46;;;;;;;3.60;3.20;;;26.50;92.20;;;;;;5104575;28;20206;-80
2023/07/09 10:05:14;;;;;;;3.10;2.90;;;26.60;92.10;;;;;;5104443;28;20198;-80
2023/07/09 10:07:48;;;;;;;3.83;3.53;;;26.60;92.00;;;;;;5113497;27;20209;-81
2023/07/09 10:10:20;;;;;;;4.20;3.45;;;26.70;91.90;;;;;;5125575;27;20785;-81
2023/07/09 10:12:52;;;;;;;3.72;3.42;;;26.70;91.30;;;;;;5105077;28;20645;-81
2023/07/09 10:15:29;;;;;;;3.38;3.17;;;26.70;91.20;;;;;;5105321;28;20218;-81
2023/07/09 10:18:03;;;;;;;4.00;3.72;;;26.80;91.20;;;;;;5105305;28;20225;-81
2023/07/09 10:20:36;;;;;;;3.60;3.30;;;26.90;91.50;;;;;;5104531;28;20198;-82
2023/07/09 10:23:13;;;;;;;5.85;3.55;;;26.90;91.00;;;;;;5104382;28;20255;-81
2023/07/09 10:25:47;;;;;;;5.53;3.80;;;27.00;91.40;;;;;;5104901;28;20566;-82
2023/07/09 10:28:33;;;;;;;5.95;3.63;;;27.10;92.40;;;;;;5104927;28;20202;-81
2023/07/09 10:31:08;;;;;;;4.15;3.65;;;27.20;92.30;;;;;;5104353;28;20707;-82
2023/07/09 10:33:47;;;;;;;5.22;3.45;;;27.30;91.60;;;;;;5105258;27;20233;-81
2023/07/09 10:36:26;;;;;;;5.00;3.03;;;27.30;92.00;;;;;;5104577;28;20298;-81
2023/07/09 10:39:00;;;;;;;3.88;3.58;;;27.40;91.90;;;;;;5104413;28;20194;-81
2023/07/09 10:41:27;;;;;;;4.65;3.35;;;27.50;91.90;;;;;;5104559;28;20645;-81
2023/07/09 10:44:00;;;;;;;4.18;3.80;;;27.50;91.50;;;;;;5111555;27;20219;-81
2023/07/09 10:46:32;;;;;;;5.80;3.17;;;27.60;90.90;;;;;;5126465;27;20266;-81
2023/07/09 10:49:06;;;;;;;4.28;3.88;;;27.70;91.10;;;;;;5134723;27;20208;-81
2023/07/09 10:51:39;;;;;;;3.38;3.25;;;27.90;90.60;;;;;;5125746;27;20293;-79
2023/07/09 10:54:15;;;;;;;5.40;3.92;;;28.00;91.00;;;;;;5124378;27;20301;-81
2023/07/09 10:56:43;;;;;;;3.22;3.00;;;28.20;90.90;;;;;;5125235;28;20332;-80
2023/07/09 10:59:19;;;;;;;5.30;3.75;;;28.20;90.70;;;;;;5125236;28;20627;-80
2023/07/09 11:01:50;;;;;;;3.85;3.55;;;28.30;90.80;;;;;;5119723;27;20202;-81
2023/07/09 11:04:30;;;;;;;6.07;3.60;;;28.40;90.00;;;;;;5105833;28;20288;-81
2023/07/09 11:07:00;;;;;;;4.13;3.83;;;28.40;90.20;;;;;;5110647;27;20199;-79
2023/07/09 11:09:32;;;;;;;3.53;3.22;;;28.40;90.10;;;;;;5146221;27;20307;-82
2023/07/09 11:12:06;;;;;;;4.35;3.28;;;28.50;89.70;;;;;;5146367;27;20193;-81
2023/07/09 11:14:37;;;;;;;10.05;4.10;;;28.50;89.10;;;;;;5145964;27;20211;-80
2023/07/09 11:17:07;;;;;;;3.75;3.45;;;28.50;89.60;;;;;;5146239;27;20197;-80
2023/07/09 11:19:43;;;;;;;3.92;3.63;;;28.60;90.80;;;;;;5127061;27;20202;-80
2023/07/09 11:22:18;;;;;;;8.73;3.72;;;28.60;90.90;;;;;;5115056;28;20209;-80
2023/07/09 11:24:51;;;;;;;7.03;3.65;;;28.60;90.40;;;;;;5125771;28;20197;-80
2023/07/09 11:27:22;;;;;;;4.93;3.85;;;28.70;89.50;;;;;;5125295;28;20741;-79
2023/07/09 11:29:56;;;;;;;3.95;3.63;;;28.80;89.00;;;;;;5129831;27;20216;-79
2023/07/09 11:32:24;;;;;;;3.83;3.53;;;28.90;88.00;;;;;;5145909;27;20196;-78
2023/07/09 11:34:52;;;;;;;5.68;3.40;;;28.90;87.60;;;;;;5146109;27;20243;-78
2023/07/09 11:37:19;;;;;;;5.35;4.55;;;28.90;89.50;;;;;;5131671;27;20255;-78
2023/07/09 11:39:48;;;;;;;5.30;4.13;;;28.90;90.30;;;;;;5111352;27;20267;-79
2023/07/09 11:42:27;;;;;;;3.92;3.63;;;28.90;90.10;;;;;;5108504;28;20284;-79
2023/07/09 11:44:58;;;;;;;5.10;3.83;;;28.90;90.20;;;;;;5115160;27;20193;-81
2023/07/09 11:47:30;;;;;;;8.05;3.72;;;29.00;90.80;;;;;;5109314;27;20202;-78
2023/07/09 11:50:01;;;;;;;3.85;3.60;;;29.00;90.30;;;;;;5126335;27;20197;-71
2023/07/09 11:52:33;;;;;;;3.95;3.55;;;29.10;88.70;;;;;;5128549;27;20228;-79
2023/07/09 11:55:03;;;;;;;4.05;3.72;;;29.10;88.90;;;;;;5114275;27;20870;-81
2023/07/09 11:57:30;;;;;;;5.13;4.03;;;29.10;89.20;;;;;;5108847;28;20229;-81
2023/07/09 12:00:00;;;;;;;4.35;3.65;;;29.10;90.20;;;;;;5108398;28;20209;-81
2023/07/09 12:02:34;;;;;;;4.32;3.58;;;29.10;88.40;;;;;;5108141;28;20226;-80
2023/07/09 12:05:05;;;;;;;4.47;4.10;;;29.10;88.00;;;;;;5108284;28;20285;-84
2023/07/09 12:07:31;;;;;;;4.28;3.97;;;29.10;88.80;;;;;;5108474;28;20277;-81
2023/07/09 12:09:58;;;;;;;5.55;3.65;;;29.20;87.20;;;;;;5108684;28;20212;-80
2023/07/09 12:12:27;;;;;;;10.07;4.05;;;29.20;87.20;;;;;;5108651;28;20383;-80
2023/07/09 12:14:55;;;;;;;3.97;3.65;;;29.20;88.60;;;;;;5108576;28;20664;-80
2023/07/09 12:17:25;;;;;;;4.40;3.83;;;29.20;89.10;;;;;;5109013;28;20209;-81
2023/07/09 12:19:53;;;;;;;5.25;3.88;;;29.20;90.10;;;;;;5140612;27;20207;-81
2023/07/09 12:22:22;;;;;;;5.32;3.80;;;29.20;90.40;;;;;;5148421;27;20215;-81
2023/07/09 12:24:51;;;;;;;4.22;3.92;;;29.20;88.30;;;;;;5148832;27;20698;-81
2023/07/09 12:27:24;;;;;;;4.85;4.30;;;29.30;87.60;;;;;;5132575;27;20230;-81
2023/07/09 12:29:54;;;;;;;4.60;4.20;;;29.30;87.30;;;;;;5122171;27;20660;-80
2023/07/09 12:32:22;;;;;;;4.15;3.75;;;29.30;88.20;;;;;;5108068;28;20297;-80
2023/07/09 12:34:51;;;;;;;4.13;3.72;;;29.40;88.70;;;;;;5108075;28;20260;-81
2023/07/09 12:37:22;;;;;;;9.60;4.10;;;29.40;89.50;;;;;;5108066;28;20224;-80
2023/07/09 12:39:51;;;;;;;4.50;3.90;;;29.40;89.20;;;;;;5108489;28;20201;-81
2023/07/09 12:42:21;;;;;;;5.80;4.20;;;29.50;87.30;;;;;;5108427;27;20209;-80
2023/07/09 12:44:49;;;;;;;4.70;4.30;;;29.50;87.90;;;;;;5118914;27;20645;-81
2023/07/09 12:47:19;;;;;;;4.10;3.70;;;29.50;88.00;;;;;;5128468;27;20249;-80
2023/07/09 12:49:47;;;;;;;3.97;3.60;;;29.50;87.70;;;;;;5126814;27;20252;-80
2023/07/09 12:52:19;;;;;;;4.10;3.80;;;29.50;87.90;;;;;;5127939;27;21024;-81
2023/07/09 12:54:57;;;;;;;4.40;4.10;;;29.50;87.30;;;;;;5128332;27;20198;-81
2023/07/09 12:57:25;;;;;;;3.90;3.60;;;29.50;87.20;;;;;;5128505;27;20241;-80